GTI701 VABB-OMDB
Flight info
| Callsign | GTI701 |
|---|---|
| Flight time | 2h 26m |
| Altitude | 34000 |
| Route | RAXET2A SAKUN V2 SUGID N571 VUSET A454 PASOV B540 MIVEK P574 IMPED |
| Aircraft | B77L/H-SDE1E2E3FGHIJ2J3J4J5M1RWXY/LB1D1 |
Departure
| Time | 2026-05-07 08:39 |
|---|---|
| Airport | Chhatrapati Shivaji Maharaj International Airport (VABB) |
Arrival
| Time | 2026-05-07 11:05 |
|---|---|
| Airport | Dubai International Airport (OMDB) |
| Time | Latitude | Longitude | Altitude | Speed | Heading |
|---|---|---|---|---|---|
| 2026-05-07 08:05 | 19.09549 | 72.86805 | 44 ft | 0 kts | 319° |
| 2026-05-07 08:26 | 19.09549 | 72.86806 | 44 ft | 0 kts | 319° |
| 2026-05-07 08:29 | 19.09548 | 72.86807 | 44 ft | 1 kts | 319° |
| 2026-05-07 08:29 | 19.09541 | 72.86813 | 44 ft | 2 kts | 317° |
| 2026-05-07 08:29 | 19.09531 | 72.86825 | 43 ft | 2 kts | 301° |
| 2026-05-07 08:29 | 19.09524 | 72.86840 | 43 ft | 2 kts | 288° |
| 2026-05-07 08:30 | 19.09520 | 72.86855 | 43 ft | 2 kts | 275° |
| 2026-05-07 08:30 | 19.09520 | 72.86871 | 43 ft | 2 kts | 261° |
| 2026-05-07 08:30 | 19.09524 | 72.86885 | 43 ft | 2 kts | 249° |
| 2026-05-07 08:30 | 19.09530 | 72.86900 | 44 ft | 2 kts | 236° |
| 2026-05-07 08:31 | 19.09535 | 72.86906 | 44 ft | 1 kts | 228° |
| 2026-05-07 08:31 | 19.09537 | 72.86909 | 44 ft | 0 kts | 229° |
| 2026-05-07 08:34 | 19.09535 | 72.86906 | 44 ft | 2 kts | 229° |
| 2026-05-07 08:34 | 19.09489 | 72.86851 | 43 ft | 17 kts | 230° |
| 2026-05-07 08:34 | 19.09401 | 72.86848 | 41 ft | 15 kts | 138° |
| 2026-05-07 08:34 | 19.09320 | 72.86929 | 40 ft | 16 kts | 139° |
| 2026-05-07 08:35 | 19.09239 | 72.87009 | 38 ft | 15 kts | 122° |
| 2026-05-07 08:35 | 19.09233 | 72.87121 | 38 ft | 15 kts | 89° |
| 2026-05-07 08:35 | 19.09235 | 72.87230 | 38 ft | 14 kts | 90° |
| 2026-05-07 08:35 | 19.09173 | 72.87261 | 37 ft | 11 kts | 178° |
| 2026-05-07 08:36 | 19.09078 | 72.87266 | 35 ft | 15 kts | 166° |
| 2026-05-07 08:36 | 19.09047 | 72.87353 | 34 ft | 15 kts | 90° |
| 2026-05-07 08:36 | 19.09056 | 72.87512 | 35 ft | 27 kts | 86° |
| 2026-05-07 08:36 | 19.09059 | 72.87708 | 36 ft | 26 kts | 92° |
| 2026-05-07 08:37 | 19.09055 | 72.87890 | 39 ft | 23 kts | 91° |
| 2026-05-07 08:37 | 19.09054 | 72.88017 | 40 ft | 12 kts | 89° |
| 2026-05-07 08:37 | 19.09022 | 72.88048 | 40 ft | 0 kts | 171° |
| 2026-05-07 08:37 | 19.09006 | 72.88050 | 40 ft | 7 kts | 171° |
| 2026-05-07 08:38 | 19.08934 | 72.88053 | 40 ft | 12 kts | 187° |
| 2026-05-07 08:38 | 19.08886 | 72.88002 | 40 ft | 12 kts | 261° |
| 2026-05-07 08:38 | 19.08887 | 72.87904 | 38 ft | 13 kts | 270° |
| 2026-05-07 08:38 | 19.08888 | 72.87637 | 34 ft | 82 kts | 269° |
| 2026-05-07 08:39 | 19.08879 | 72.86649 | 56 ft | 180 kts | 270° |
| 2026-05-07 08:39 | 19.08885 | 72.85261 | 1161 ft | 195 kts | 270° |
| 2026-05-07 08:39 | 19.08864 | 72.83882 | 2564 ft | 208 kts | 271° |
| 2026-05-07 08:39 | 19.08838 | 72.82351 | 3840 ft | 227 kts | 270° |
| 2026-05-07 08:40 | 19.08805 | 72.80648 | 5079 ft | 251 kts | 269° |
| 2026-05-07 08:40 | 19.08774 | 72.78791 | 6450 ft | 268 kts | 268° |
| 2026-05-07 08:40 | 19.08738 | 72.76826 | 7848 ft | 282 kts | 268° |
| 2026-05-07 08:40 | 19.08697 | 72.74716 | 9249 ft | 296 kts | 268° |
| 2026-05-07 08:41 | 19.08856 | 72.72580 | 10647 ft | 307 kts | 276° |
| 2026-05-07 08:41 | 19.09171 | 72.70298 | 11978 ft | 323 kts | 276° |
| 2026-05-07 08:41 | 19.09464 | 72.67947 | 13257 ft | 338 kts | 275° |
| 2026-05-07 08:41 | 19.09745 | 72.65458 | 14548 ft | 351 kts | 276° |
| 2026-05-07 08:42 | 19.10025 | 72.62890 | 15826 ft | 363 kts | 277° |
| 2026-05-07 08:42 | 19.10311 | 72.60239 | 17074 ft | 374 kts | 277° |
| 2026-05-07 08:42 | 19.10606 | 72.57505 | 18238 ft | 385 kts | 278° |
| 2026-05-07 08:42 | 19.10910 | 72.54676 | 19317 ft | 397 kts | 279° |
| 2026-05-07 08:43 | 19.11227 | 72.51729 | 20305 ft | 409 kts | 279° |
| 2026-05-07 08:43 | 19.11550 | 72.48716 | 21247 ft | 421 kts | 280° |
| 2026-05-07 08:43 | 19.11878 | 72.45652 | 22287 ft | 428 kts | 280° |
| 2026-05-07 08:43 | 19.12211 | 72.42531 | 23351 ft | 435 kts | 279° |
| 2026-05-07 08:44 | 19.12551 | 72.39349 | 24342 ft | 443 kts | 279° |
| 2026-05-07 08:44 | 19.12896 | 72.36102 | 25262 ft | 451 kts | 279° |
| 2026-05-07 08:44 | 19.13248 | 72.32777 | 26136 ft | 458 kts | 278° |
| 2026-05-07 08:44 | 19.13603 | 72.29426 | 27036 ft | 464 kts | 278° |
| 2026-05-07 08:45 | 19.13960 | 72.26044 | 27884 ft | 470 kts | 277° |
| 2026-05-07 08:45 | 19.14321 | 72.22616 | 28700 ft | 475 kts | 277° |
| 2026-05-07 08:45 | 19.14689 | 72.19121 | 29529 ft | 479 kts | 277° |
| 2026-05-07 08:45 | 19.15054 | 72.15644 | 30483 ft | 478 kts | 277° |
| 2026-05-07 08:46 | 19.15496 | 72.12183 | 31513 ft | 474 kts | 282° |
| 2026-05-07 08:46 | 19.16372 | 72.08893 | 32548 ft | 469 kts | 291° |
| 2026-05-07 08:46 | 19.17700 | 72.05767 | 33534 ft | 468 kts | 297° |
| 2026-05-07 08:46 | 19.19235 | 72.02673 | 33817 ft | 482 kts | 298° |
| 2026-05-07 08:47 | 19.20814 | 71.99538 | 33822 ft | 498 kts | 298° |
| 2026-05-07 08:47 | 19.22481 | 71.96227 | 33820 ft | 509 kts | 298° |
| 2026-05-07 08:47 | 19.25831 | 71.89571 | 33819 ft | 516 kts | 298° |
| 2026-05-07 08:48 | 19.29215 | 71.82838 | 33821 ft | 517 kts | 298° |
| 2026-05-07 08:48 | 19.32596 | 71.76102 | 33820 ft | 516 kts | 298° |
| 2026-05-07 08:49 | 19.35960 | 71.69392 | 33820 ft | 516 kts | 298° |
| 2026-05-07 08:49 | 19.39311 | 71.62699 | 33818 ft | 516 kts | 298° |
| 2026-05-07 08:50 | 19.42579 | 71.56166 | 33809 ft | 487 kts | 298° |
| 2026-05-07 08:50 | 19.44152 | 71.53017 | 33806 ft | 471 kts | 298° |
| 2026-05-07 08:50 | 19.45650 | 71.50017 | 33807 ft | 460 kts | 298° |
| 2026-05-07 08:51 | 19.48649 | 71.44009 | 33811 ft | 464 kts | 298° |
| 2026-05-07 08:51 | 19.51659 | 71.37971 | 33808 ft | 464 kts | 297° |
| 2026-05-07 08:52 | 19.54657 | 71.31952 | 33814 ft | 463 kts | 297° |
| 2026-05-07 08:52 | 19.57652 | 71.25932 | 33814 ft | 463 kts | 297° |
| 2026-05-07 08:53 | 19.60607 | 71.19826 | 33808 ft | 462 kts | 292° |
| 2026-05-07 08:53 | 19.62718 | 71.13432 | 33809 ft | 461 kts | 288° |
| 2026-05-07 08:54 | 19.64736 | 71.06971 | 33813 ft | 461 kts | 288° |
| 2026-05-07 08:54 | 19.66754 | 71.00506 | 33811 ft | 461 kts | 288° |
| 2026-05-07 08:55 | 19.68778 | 70.94015 | 33818 ft | 462 kts | 288° |
| 2026-05-07 08:55 | 19.70795 | 70.87539 | 33816 ft | 464 kts | 288° |
| 2026-05-07 08:56 | 19.72808 | 70.81065 | 33824 ft | 463 kts | 288° |
| 2026-05-07 08:56 | 19.74814 | 70.74607 | 33834 ft | 461 kts | 288° |
| 2026-05-07 08:57 | 19.76819 | 70.68140 | 33832 ft | 461 kts | 288° |
| 2026-05-07 08:57 | 19.78817 | 70.61689 | 33839 ft | 461 kts | 288° |
| 2026-05-07 08:58 | 19.80821 | 70.55211 | 33839 ft | 461 kts | 288° |
| 2026-05-07 08:58 | 19.82830 | 70.48705 | 33832 ft | 461 kts | 288° |
| 2026-05-07 08:59 | 19.84809 | 70.42283 | 33832 ft | 461 kts | 288° |
| 2026-05-07 08:59 | 19.85832 | 70.35597 | 33832 ft | 463 kts | 271° |
| 2026-05-07 09:00 | 19.84932 | 70.28827 | 33840 ft | 467 kts | 255° |
| 2026-05-07 09:00 | 19.82910 | 70.22253 | 33849 ft | 468 kts | 253° |
| 2026-05-07 09:01 | 19.80847 | 70.15703 | 33846 ft | 467 kts | 253° |
| 2026-05-07 09:01 | 19.78789 | 70.09193 | 33840 ft | 467 kts | 253° |
| 2026-05-07 09:02 | 19.76715 | 70.02647 | 33834 ft | 467 kts | 253° |
| 2026-05-07 09:02 | 19.74638 | 69.96103 | 33831 ft | 468 kts | 253° |
| 2026-05-07 09:03 | 19.72565 | 69.89582 | 33843 ft | 468 kts | 253° |
| 2026-05-07 09:03 | 19.70488 | 69.83060 | 33848 ft | 468 kts | 253° |
| 2026-05-07 09:04 | 19.68404 | 69.76524 | 33851 ft | 468 kts | 253° |
| 2026-05-07 09:04 | 19.66324 | 69.70010 | 33848 ft | 467 kts | 253° |
| 2026-05-07 09:05 | 19.64246 | 69.63512 | 33850 ft | 467 kts | 253° |
| 2026-05-07 09:05 | 19.62152 | 69.56975 | 33850 ft | 467 kts | 253° |
| 2026-05-07 09:06 | 19.60068 | 69.50476 | 33849 ft | 467 kts | 253° |
| 2026-05-07 09:06 | 19.57969 | 69.43935 | 33849 ft | 468 kts | 253° |
| 2026-05-07 09:07 | 19.56857 | 69.37227 | 33847 ft | 467 kts | 270° |
| 2026-05-07 09:07 | 19.57705 | 69.30428 | 33854 ft | 465 kts | 287° |
| 2026-05-07 09:08 | 19.60274 | 69.24167 | 33855 ft | 464 kts | 297° |
| 2026-05-07 09:08 | 19.63233 | 69.18023 | 34071 ft | 480 kts | 297° |
| 2026-05-07 09:09 | 19.64758 | 69.14853 | 34917 ft | 480 kts | 297° |
| 2026-05-07 09:09 | 19.66268 | 69.11710 | 35726 ft | 477 kts | 297° |
| 2026-05-07 09:09 | 19.67751 | 69.08624 | 35845 ft | 476 kts | 297° |
| 2026-05-07 09:09 | 19.69253 | 69.05492 | 35848 ft | 472 kts | 297° |
| 2026-05-07 09:10 | 19.72221 | 68.99301 | 35838 ft | 470 kts | 297° |
| 2026-05-07 09:10 | 19.75167 | 68.93148 | 35829 ft | 470 kts | 297° |
| 2026-05-07 09:11 | 19.78119 | 68.86977 | 35833 ft | 469 kts | 297° |
| 2026-05-07 09:11 | 19.81069 | 68.80800 | 35831 ft | 469 kts | 297° |
| 2026-05-07 09:12 | 19.84014 | 68.74627 | 35842 ft | 469 kts | 297° |
| 2026-05-07 09:12 | 19.86956 | 68.68454 | 35845 ft | 470 kts | 297° |
| 2026-05-07 09:13 | 19.89889 | 68.62294 | 35849 ft | 470 kts | 297° |
| 2026-05-07 09:13 | 19.92834 | 68.56100 | 35841 ft | 470 kts | 297° |
| 2026-05-07 09:14 | 19.95785 | 68.49890 | 35842 ft | 470 kts | 296° |
| 2026-05-07 09:14 | 19.98720 | 68.43703 | 35841 ft | 470 kts | 296° |
| 2026-05-07 09:15 | 20.01652 | 68.37519 | 35844 ft | 470 kts | 296° |
| 2026-05-07 09:15 | 20.04604 | 68.31283 | 35847 ft | 470 kts | 296° |
| 2026-05-07 09:16 | 20.07534 | 68.25088 | 35847 ft | 471 kts | 296° |
| 2026-05-07 09:16 | 20.10465 | 68.18883 | 35848 ft | 470 kts | 296° |
| 2026-05-07 09:17 | 20.13402 | 68.12658 | 35846 ft | 472 kts | 296° |
| 2026-05-07 09:17 | 20.16334 | 68.06438 | 35847 ft | 472 kts | 296° |
| 2026-05-07 09:18 | 20.19263 | 68.00218 | 35846 ft | 471 kts | 296° |
| 2026-05-07 09:18 | 20.22185 | 67.94006 | 35848 ft | 471 kts | 296° |
| 2026-05-07 09:19 | 20.25113 | 67.87772 | 35849 ft | 472 kts | 296° |
| 2026-05-07 09:19 | 20.28062 | 67.81486 | 35848 ft | 470 kts | 296° |
| 2026-05-07 09:20 | 20.30979 | 67.75263 | 35846 ft | 472 kts | 296° |
| 2026-05-07 09:20 | 20.33883 | 67.69060 | 35847 ft | 471 kts | 296° |
| 2026-05-07 09:21 | 20.36800 | 67.62823 | 35847 ft | 471 kts | 296° |
| 2026-05-07 09:21 | 20.39729 | 67.56551 | 35851 ft | 472 kts | 296° |
| 2026-05-07 09:22 | 20.42638 | 67.50317 | 35850 ft | 470 kts | 296° |
| 2026-05-07 09:22 | 20.45530 | 67.44112 | 35853 ft | 471 kts | 296° |
| 2026-05-07 09:23 | 20.48450 | 67.37838 | 35849 ft | 471 kts | 296° |
| 2026-05-07 09:23 | 20.51348 | 67.31607 | 35849 ft | 471 kts | 296° |
| 2026-05-07 09:24 | 20.54265 | 67.25326 | 35844 ft | 471 kts | 296° |
| 2026-05-07 09:24 | 20.57168 | 67.19069 | 35845 ft | 471 kts | 296° |
| 2026-05-07 09:25 | 20.60069 | 67.12807 | 35842 ft | 471 kts | 296° |
| 2026-05-07 09:25 | 20.62961 | 67.06559 | 35845 ft | 472 kts | 296° |
| 2026-05-07 09:26 | 20.65843 | 67.00326 | 35845 ft | 471 kts | 296° |
| 2026-05-07 09:26 | 20.68743 | 66.94045 | 35843 ft | 470 kts | 296° |
| 2026-05-07 09:27 | 20.71623 | 66.87801 | 35847 ft | 472 kts | 296° |
| 2026-05-07 09:28 | 20.75962 | 66.78379 | 35845 ft | 471 kts | 296° |
| 2026-05-07 09:28 | 20.78853 | 66.72093 | 35847 ft | 471 kts | 296° |
| 2026-05-07 09:29 | 20.81718 | 66.65857 | 35847 ft | 471 kts | 296° |
| 2026-05-07 09:29 | 20.84604 | 66.59567 | 35845 ft | 471 kts | 296° |
| 2026-05-07 09:30 | 20.87487 | 66.53275 | 35847 ft | 472 kts | 296° |
| 2026-05-07 09:30 | 20.90362 | 66.46994 | 35849 ft | 472 kts | 296° |
| 2026-05-07 09:31 | 20.93241 | 66.40696 | 35845 ft | 471 kts | 296° |
| 2026-05-07 09:31 | 20.96103 | 66.34428 | 35843 ft | 471 kts | 296° |
| 2026-05-07 09:32 | 20.98954 | 66.28178 | 35850 ft | 471 kts | 296° |
| 2026-05-07 09:32 | 21.01822 | 66.21884 | 35847 ft | 470 kts | 296° |
| 2026-05-07 09:33 | 21.04707 | 66.15543 | 35846 ft | 472 kts | 296° |
| 2026-05-07 09:33 | 21.07557 | 66.09270 | 35847 ft | 471 kts | 296° |
| 2026-05-07 09:34 | 21.10418 | 66.02969 | 35856 ft | 470 kts | 296° |
| 2026-05-07 09:34 | 21.13301 | 65.96696 | 35867 ft | 470 kts | 297° |
| 2026-05-07 09:35 | 21.16257 | 65.90447 | 35868 ft | 470 kts | 297° |
| 2026-05-07 09:35 | 21.19186 | 65.84241 | 35862 ft | 470 kts | 297° |
| 2026-05-07 09:36 | 21.22135 | 65.77980 | 35863 ft | 470 kts | 297° |
| 2026-05-07 09:36 | 21.25071 | 65.71733 | 35859 ft | 469 kts | 297° |
| 2026-05-07 09:37 | 21.27991 | 65.65513 | 35850 ft | 469 kts | 297° |
| 2026-05-07 09:37 | 21.30916 | 65.59276 | 35843 ft | 469 kts | 297° |
| 2026-05-07 09:38 | 21.33837 | 65.53035 | 35838 ft | 467 kts | 297° |
| 2026-05-07 09:38 | 21.36745 | 65.46817 | 35839 ft | 469 kts | 297° |
| 2026-05-07 09:39 | 21.39655 | 65.40588 | 35836 ft | 468 kts | 297° |
| 2026-05-07 09:39 | 21.42559 | 65.34362 | 35838 ft | 469 kts | 296° |
| 2026-05-07 09:40 | 21.45482 | 65.28091 | 35842 ft | 468 kts | 296° |
| 2026-05-07 09:40 | 21.48379 | 65.21865 | 35840 ft | 467 kts | 296° |
| 2026-05-07 09:41 | 21.51283 | 65.15617 | 35837 ft | 468 kts | 296° |
| 2026-05-07 09:41 | 21.54171 | 65.09399 | 35835 ft | 467 kts | 296° |
| 2026-05-07 09:42 | 21.57063 | 65.03162 | 35835 ft | 467 kts | 296° |
| 2026-05-07 09:42 | 21.59957 | 64.96913 | 35836 ft | 468 kts | 296° |
| 2026-05-07 09:43 | 21.62834 | 64.90693 | 35833 ft | 468 kts | 296° |
| 2026-05-07 09:43 | 21.65735 | 64.84415 | 35835 ft | 468 kts | 296° |
| 2026-05-07 09:44 | 21.68614 | 64.78178 | 35840 ft | 467 kts | 296° |
| 2026-05-07 09:44 | 21.71491 | 64.71935 | 35844 ft | 467 kts | 296° |
| 2026-05-07 09:45 | 21.74367 | 64.65688 | 35845 ft | 466 kts | 296° |
| 2026-05-07 09:45 | 21.77234 | 64.59455 | 35844 ft | 466 kts | 296° |
| 2026-05-07 09:46 | 21.80084 | 64.53248 | 35845 ft | 466 kts | 296° |
| 2026-05-07 09:46 | 21.82948 | 64.47004 | 35845 ft | 466 kts | 296° |
| 2026-05-07 09:47 | 21.85825 | 64.40725 | 35845 ft | 466 kts | 296° |
| 2026-05-07 09:47 | 21.88679 | 64.34488 | 35847 ft | 466 kts | 296° |
| 2026-05-07 09:48 | 21.91526 | 64.28258 | 35839 ft | 465 kts | 296° |
| 2026-05-07 09:48 | 21.94372 | 64.22025 | 35830 ft | 466 kts | 296° |
| 2026-05-07 09:49 | 21.97234 | 64.15747 | 35827 ft | 465 kts | 296° |
| 2026-05-07 09:49 | 22.00053 | 64.09557 | 35831 ft | 465 kts | 296° |
| 2026-05-07 09:50 | 22.02897 | 64.03303 | 35826 ft | 464 kts | 296° |
| 2026-05-07 09:50 | 22.05734 | 63.97055 | 35828 ft | 464 kts | 296° |
| 2026-05-07 09:51 | 22.08553 | 63.90842 | 35826 ft | 464 kts | 296° |
| 2026-05-07 09:51 | 22.11385 | 63.84592 | 35827 ft | 465 kts | 296° |
| 2026-05-07 09:52 | 22.14225 | 63.78316 | 35825 ft | 464 kts | 296° |
| 2026-05-07 09:52 | 22.17040 | 63.72089 | 35823 ft | 464 kts | 296° |
| 2026-05-07 09:53 | 22.19859 | 63.65843 | 35822 ft | 463 kts | 296° |
| 2026-05-07 09:53 | 22.22668 | 63.59613 | 35823 ft | 462 kts | 296° |
| 2026-05-07 09:54 | 22.25473 | 63.53383 | 35822 ft | 463 kts | 296° |
| 2026-05-07 09:54 | 22.28273 | 63.47159 | 35820 ft | 463 kts | 296° |
| 2026-05-07 09:55 | 22.31083 | 63.40903 | 35818 ft | 462 kts | 296° |
| 2026-05-07 09:55 | 22.33868 | 63.34695 | 35815 ft | 462 kts | 295° |
| 2026-05-07 09:56 | 22.36671 | 63.28438 | 35821 ft | 463 kts | 295° |
| 2026-05-07 09:56 | 22.39466 | 63.22192 | 35817 ft | 463 kts | 295° |
| 2026-05-07 09:57 | 22.42264 | 63.15931 | 35822 ft | 463 kts | 295° |
| 2026-05-07 09:57 | 22.45020 | 63.09673 | 35823 ft | 461 kts | 293° |
| 2026-05-07 09:58 | 22.47493 | 63.03295 | 35829 ft | 462 kts | 292° |
| 2026-05-07 09:58 | 22.49963 | 62.96913 | 35827 ft | 461 kts | 292° |
| 2026-05-07 09:59 | 22.52440 | 62.90532 | 35823 ft | 461 kts | 292° |
| 2026-05-07 09:59 | 22.54926 | 62.84133 | 35822 ft | 461 kts | 292° |
| 2026-05-07 10:00 | 22.57407 | 62.77748 | 35818 ft | 461 kts | 292° |
| 2026-05-07 10:00 | 22.59877 | 62.71387 | 35817 ft | 462 kts | 292° |
| 2026-05-07 10:01 | 22.62356 | 62.64996 | 35812 ft | 461 kts | 292° |
| 2026-05-07 10:01 | 22.64829 | 62.58612 | 35809 ft | 462 kts | 292° |
| 2026-05-07 10:02 | 22.67306 | 62.52209 | 35810 ft | 461 kts | 292° |
| 2026-05-07 10:02 | 22.69774 | 62.45823 | 35811 ft | 461 kts | 292° |
| 2026-05-07 10:03 | 22.72247 | 62.39412 | 35809 ft | 461 kts | 292° |
| 2026-05-07 10:03 | 22.74718 | 62.32999 | 35813 ft | 461 kts | 292° |
| 2026-05-07 10:04 | 22.77176 | 62.26612 | 35812 ft | 460 kts | 292° |
| 2026-05-07 10:04 | 22.79616 | 62.20260 | 35813 ft | 459 kts | 292° |
| 2026-05-07 10:05 | 22.82067 | 62.13873 | 35809 ft | 460 kts | 292° |
| 2026-05-07 10:05 | 22.84528 | 62.07450 | 35809 ft | 461 kts | 292° |
| 2026-05-07 10:06 | 22.86980 | 62.01043 | 35801 ft | 462 kts | 292° |
| 2026-05-07 10:06 | 22.89425 | 61.94644 | 35792 ft | 461 kts | 292° |
| 2026-05-07 10:07 | 22.91869 | 61.88237 | 35788 ft | 462 kts | 292° |
| 2026-05-07 10:07 | 22.94319 | 61.81807 | 35785 ft | 461 kts | 292° |
| 2026-05-07 10:08 | 22.96755 | 61.75405 | 35786 ft | 460 kts | 292° |
| 2026-05-07 10:08 | 22.99176 | 61.69033 | 35784 ft | 459 kts | 292° |
| 2026-05-07 10:09 | 23.01608 | 61.62623 | 35780 ft | 460 kts | 292° |
| 2026-05-07 10:09 | 23.04037 | 61.56211 | 35784 ft | 460 kts | 292° |
| 2026-05-07 10:10 | 23.06462 | 61.49800 | 35780 ft | 460 kts | 292° |
| 2026-05-07 10:10 | 23.08879 | 61.43403 | 35777 ft | 460 kts | 292° |
| 2026-05-07 10:11 | 23.11302 | 61.36980 | 35786 ft | 459 kts | 292° |
| 2026-05-07 10:11 | 23.13734 | 61.30524 | 35796 ft | 460 kts | 291° |
| 2026-05-07 10:12 | 23.16149 | 61.24106 | 35798 ft | 459 kts | 291° |
| 2026-05-07 10:12 | 23.18558 | 61.17690 | 35796 ft | 459 kts | 291° |
| 2026-05-07 10:13 | 23.20959 | 61.11290 | 35799 ft | 459 kts | 291° |
| 2026-05-07 10:13 | 23.23352 | 61.04900 | 35802 ft | 459 kts | 291° |
| 2026-05-07 10:14 | 23.25755 | 60.98476 | 35799 ft | 459 kts | 291° |
| 2026-05-07 10:14 | 23.28144 | 60.92078 | 35795 ft | 459 kts | 291° |
| 2026-05-07 10:15 | 23.30541 | 60.85650 | 35797 ft | 459 kts | 291° |
| 2026-05-07 10:15 | 23.32931 | 60.79231 | 35793 ft | 460 kts | 291° |
| 2026-05-07 10:16 | 23.35322 | 60.72802 | 35791 ft | 459 kts | 291° |
| 2026-05-07 10:16 | 23.37709 | 60.66372 | 35786 ft | 460 kts | 291° |
| 2026-05-07 10:17 | 23.40085 | 60.59925 | 35778 ft | 459 kts | 291° |
| 2026-05-07 10:17 | 23.42446 | 60.53473 | 35779 ft | 459 kts | 291° |
| 2026-05-07 10:18 | 23.44801 | 60.47028 | 35779 ft | 459 kts | 291° |
| 2026-05-07 10:18 | 23.47147 | 60.40602 | 35778 ft | 458 kts | 291° |
| 2026-05-07 10:19 | 23.49508 | 60.34125 | 35782 ft | 459 kts | 290° |
| 2026-05-07 10:19 | 23.51857 | 60.27671 | 35788 ft | 459 kts | 290° |
| 2026-05-07 10:20 | 23.54201 | 60.21220 | 35787 ft | 459 kts | 291° |
| 2026-05-07 10:20 | 23.56535 | 60.14791 | 35787 ft | 459 kts | 291° |
| 2026-05-07 10:21 | 23.58876 | 60.08329 | 35786 ft | 459 kts | 291° |
| 2026-05-07 10:21 | 23.61208 | 60.01886 | 35785 ft | 458 kts | 290° |
| 2026-05-07 10:22 | 23.63524 | 59.95476 | 35786 ft | 458 kts | 290° |
| 2026-05-07 10:22 | 23.65857 | 59.89009 | 35785 ft | 459 kts | 290° |
| 2026-05-07 10:23 | 23.68180 | 59.82561 | 35787 ft | 458 kts | 290° |
| 2026-05-07 10:23 | 23.70507 | 59.76090 | 35786 ft | 458 kts | 290° |
| 2026-05-07 10:24 | 23.72824 | 59.69639 | 35778 ft | 458 kts | 290° |
| 2026-05-07 10:24 | 23.75144 | 59.63171 | 35773 ft | 458 kts | 290° |
| 2026-05-07 10:25 | 23.77454 | 59.56718 | 35777 ft | 458 kts | 290° |
| 2026-05-07 10:25 | 23.79767 | 59.50250 | 35768 ft | 458 kts | 290° |
| 2026-05-07 10:26 | 23.82066 | 59.43810 | 35771 ft | 458 kts | 290° |
| 2026-05-07 10:26 | 23.84379 | 59.37320 | 35764 ft | 457 kts | 290° |
| 2026-05-07 10:27 | 23.86676 | 59.30865 | 35774 ft | 457 kts | 290° |
| 2026-05-07 10:27 | 23.88980 | 59.24381 | 35779 ft | 458 kts | 290° |
| 2026-05-07 10:28 | 23.91267 | 59.17935 | 35778 ft | 458 kts | 290° |
| 2026-05-07 10:28 | 23.93532 | 59.11458 | 35789 ft | 458 kts | 288° |
| 2026-05-07 10:29 | 23.95624 | 59.04905 | 35789 ft | 457 kts | 288° |
| 2026-05-07 10:29 | 23.97705 | 58.98381 | 35785 ft | 456 kts | 288° |
| 2026-05-07 10:30 | 24.00841 | 58.88562 | 35783 ft | 457 kts | 288° |
| 2026-05-07 10:30 | 24.02935 | 58.82004 | 35781 ft | 456 kts | 288° |
| 2026-05-07 10:31 | 24.05019 | 58.75467 | 35784 ft | 456 kts | 288° |
| 2026-05-07 10:31 | 24.07101 | 58.68932 | 35782 ft | 456 kts | 288° |
| 2026-05-07 10:32 | 24.09178 | 58.62399 | 35776 ft | 456 kts | 288° |
| 2026-05-07 10:32 | 24.11256 | 58.55853 | 35770 ft | 456 kts | 288° |
| 2026-05-07 10:33 | 24.13325 | 58.49324 | 35770 ft | 456 kts | 288° |
| 2026-05-07 10:33 | 24.15401 | 58.42765 | 35766 ft | 456 kts | 288° |
| 2026-05-07 10:34 | 24.17468 | 58.36224 | 35762 ft | 457 kts | 288° |
| 2026-05-07 10:34 | 24.19526 | 58.29697 | 35766 ft | 456 kts | 287° |
| 2026-05-07 10:35 | 24.21601 | 58.23107 | 35766 ft | 456 kts | 287° |
| 2026-05-07 10:35 | 24.23658 | 58.16565 | 35765 ft | 455 kts | 287° |
| 2026-05-07 10:36 | 24.25716 | 58.10008 | 35765 ft | 455 kts | 287° |
| 2026-05-07 10:36 | 24.27768 | 58.03457 | 35764 ft | 455 kts | 287° |
| 2026-05-07 10:37 | 24.29808 | 57.96933 | 35764 ft | 455 kts | 287° |
| 2026-05-07 10:37 | 24.31846 | 57.90408 | 35764 ft | 454 kts | 287° |
| 2026-05-07 10:38 | 24.33886 | 57.83860 | 35764 ft | 454 kts | 287° |
| 2026-05-07 10:38 | 24.35927 | 57.77301 | 35761 ft | 454 kts | 287° |
| 2026-05-07 10:39 | 24.37941 | 57.70820 | 35407 ft | 451 kts | 287° |
| 2026-05-07 10:39 | 24.38939 | 57.67602 | 35077 ft | 454 kts | 287° |
| 2026-05-07 10:39 | 24.39966 | 57.64290 | 34760 ft | 456 kts | 287° |
| 2026-05-07 10:40 | 24.40987 | 57.60992 | 34448 ft | 456 kts | 287° |
| 2026-05-07 10:40 | 24.41999 | 57.57723 | 34138 ft | 457 kts | 287° |
| 2026-05-07 10:40 | 24.43025 | 57.54404 | 33826 ft | 458 kts | 287° |
| 2026-05-07 10:40 | 24.44041 | 57.51115 | 33517 ft | 460 kts | 287° |
| 2026-05-07 10:41 | 24.45060 | 57.47811 | 33208 ft | 460 kts | 287° |
| 2026-05-07 10:41 | 24.46091 | 57.44471 | 32895 ft | 461 kts | 287° |
| 2026-05-07 10:41 | 24.47117 | 57.41139 | 32595 ft | 462 kts | 287° |
| 2026-05-07 10:41 | 24.48147 | 57.37795 | 32319 ft | 463 kts | 287° |
| 2026-05-07 10:42 | 24.49163 | 57.34491 | 31988 ft | 457 kts | 287° |
| 2026-05-07 10:42 | 24.50178 | 57.31189 | 31294 ft | 457 kts | 287° |
| 2026-05-07 10:42 | 24.51185 | 57.27911 | 30375 ft | 461 kts | 287° |
| 2026-05-07 10:42 | 24.52205 | 57.24585 | 29926 ft | 461 kts | 287° |
| 2026-05-07 10:43 | 24.53239 | 57.21209 | 29582 ft | 472 kts | 287° |
| 2026-05-07 10:43 | 24.54271 | 57.17842 | 29308 ft | 461 kts | 287° |
| 2026-05-07 10:43 | 24.55286 | 57.14526 | 28918 ft | 452 kts | 287° |
| 2026-05-07 10:43 | 24.56272 | 57.11302 | 28361 ft | 449 kts | 287° |
| 2026-05-07 10:44 | 24.57258 | 57.08073 | 27670 ft | 448 kts | 287° |
| 2026-05-07 10:44 | 24.58251 | 57.04818 | 26975 ft | 447 kts | 288° |
| 2026-05-07 10:44 | 24.59227 | 57.01617 | 26344 ft | 444 kts | 288° |
| 2026-05-07 10:44 | 24.60201 | 56.98418 | 25711 ft | 442 kts | 288° |
| 2026-05-07 10:45 | 24.61174 | 56.95223 | 25083 ft | 440 kts | 288° |
| 2026-05-07 10:45 | 24.62133 | 56.92069 | 24453 ft | 438 kts | 288° |
| 2026-05-07 10:45 | 24.63087 | 56.88929 | 23831 ft | 436 kts | 288° |
| 2026-05-07 10:45 | 24.64062 | 56.85776 | 23164 ft | 433 kts | 291° |
| 2026-05-07 10:46 | 24.65363 | 56.82813 | 22796 ft | 426 kts | 300° |
| 2026-05-07 10:46 | 24.66884 | 56.80016 | 22777 ft | 432 kts | 301° |
| 2026-05-07 10:46 | 24.68449 | 56.77177 | 22774 ft | 433 kts | 301° |
| 2026-05-07 10:46 | 24.70000 | 56.74365 | 22783 ft | 432 kts | 301° |
| 2026-05-07 10:47 | 24.71557 | 56.71541 | 22777 ft | 432 kts | 301° |
| 2026-05-07 10:47 | 24.73094 | 56.68752 | 22474 ft | 425 kts | 301° |
| 2026-05-07 10:47 | 24.74637 | 56.65951 | 21611 ft | 429 kts | 301° |
| 2026-05-07 10:47 | 24.76178 | 56.63153 | 20905 ft | 429 kts | 301° |
| 2026-05-07 10:48 | 24.77714 | 56.60361 | 20315 ft | 425 kts | 301° |
| 2026-05-07 10:48 | 24.79218 | 56.57627 | 19722 ft | 422 kts | 302° |
| 2026-05-07 10:48 | 24.80739 | 56.54859 | 19143 ft | 419 kts | 302° |
| 2026-05-07 10:48 | 24.82219 | 56.52166 | 18569 ft | 415 kts | 302° |
| 2026-05-07 10:49 | 24.83722 | 56.49428 | 18000 ft | 412 kts | 302° |
| 2026-05-07 10:49 | 24.85199 | 56.46737 | 17405 ft | 410 kts | 302° |
| 2026-05-07 10:49 | 24.86646 | 56.44098 | 16829 ft | 407 kts | 301° |
| 2026-05-07 10:49 | 24.87883 | 56.41298 | 16243 ft | 404 kts | 291° |
| 2026-05-07 10:50 | 24.88618 | 56.38329 | 15674 ft | 401 kts | 279° |
| 2026-05-07 10:50 | 24.88827 | 56.35306 | 15136 ft | 398 kts | 269° |
| 2026-05-07 10:50 | 24.88595 | 56.32301 | 14572 ft | 395 kts | 263° |
| 2026-05-07 10:50 | 24.88315 | 56.29310 | 14036 ft | 392 kts | 266° |
| 2026-05-07 10:51 | 24.88414 | 56.26327 | 13462 ft | 391 kts | 277° |
| 2026-05-07 10:51 | 24.89032 | 56.23406 | 12774 ft | 393 kts | 289° |
| 2026-05-07 10:51 | 24.90159 | 56.20711 | 12514 ft | 381 kts | 299° |
| 2026-05-07 10:51 | 24.91449 | 56.18216 | 12419 ft | 366 kts | 300° |
| 2026-05-07 10:52 | 24.92698 | 56.15825 | 12278 ft | 353 kts | 300° |
| 2026-05-07 10:52 | 24.93890 | 56.13535 | 12143 ft | 342 kts | 300° |
| 2026-05-07 10:52 | 24.95038 | 56.11319 | 11995 ft | 331 kts | 300° |
| 2026-05-07 10:52 | 24.96163 | 56.09140 | 11848 ft | 321 kts | 300° |
| 2026-05-07 10:53 | 24.97287 | 56.07064 | 11686 ft | 308 kts | 307° |
| 2026-05-07 10:53 | 24.98627 | 56.05260 | 11539 ft | 299 kts | 312° |
| 2026-05-07 10:53 | 25.00012 | 56.03564 | 11185 ft | 299 kts | 313° |
| 2026-05-07 10:53 | 25.01405 | 56.01872 | 10794 ft | 300 kts | 313° |
| 2026-05-07 10:54 | 25.02805 | 56.00166 | 10428 ft | 300 kts | 312° |
| 2026-05-07 10:54 | 25.04171 | 55.98408 | 10046 ft | 300 kts | 303° |
| 2026-05-07 10:54 | 25.04921 | 55.96309 | 9725 ft | 296 kts | 276° |
| 2026-05-07 10:54 | 25.04798 | 55.94099 | 9423 ft | 285 kts | 253° |
| 2026-05-07 10:55 | 25.04118 | 55.92079 | 9065 ft | 279 kts | 246° |
| 2026-05-07 10:55 | 25.03297 | 55.90138 | 8691 ft | 281 kts | 244° |
| 2026-05-07 10:55 | 25.02419 | 55.88195 | 8339 ft | 282 kts | 243° |
| 2026-05-07 10:55 | 25.01533 | 55.86264 | 7992 ft | 283 kts | 243° |
| 2026-05-07 10:56 | 25.00683 | 55.84334 | 7638 ft | 282 kts | 251° |
| 2026-05-07 10:56 | 25.00446 | 55.82230 | 7305 ft | 280 kts | 278° |
| 2026-05-07 10:56 | 25.01045 | 55.80194 | 6970 ft | 278 kts | 296° |
| 2026-05-07 10:56 | 25.01969 | 55.78336 | 6632 ft | 272 kts | 301° |
| 2026-05-07 10:57 | 25.02932 | 55.76586 | 6313 ft | 263 kts | 301° |
| 2026-05-07 10:57 | 25.03872 | 55.74903 | 6041 ft | 256 kts | 301° |
| 2026-05-07 10:57 | 25.04783 | 55.73204 | 5771 ft | 256 kts | 300° |
| 2026-05-07 10:57 | 25.05680 | 55.71507 | 5464 ft | 255 kts | 300° |
| 2026-05-07 10:58 | 25.06570 | 55.69845 | 5098 ft | 251 kts | 300° |
| 2026-05-07 10:58 | 25.07426 | 55.68266 | 5050 ft | 235 kts | 300° |
| 2026-05-07 10:58 | 25.08268 | 55.66735 | 5003 ft | 230 kts | 301° |
| 2026-05-07 10:58 | 25.09102 | 55.65245 | 4934 ft | 228 kts | 301° |
| 2026-05-07 10:59 | 25.09951 | 55.63747 | 4718 ft | 227 kts | 302° |
| 2026-05-07 10:59 | 25.10768 | 55.62332 | 4432 ft | 213 kts | 302° |
| 2026-05-07 10:59 | 25.11545 | 55.60999 | 4213 ft | 204 kts | 302° |
| 2026-05-07 10:59 | 25.12292 | 55.59691 | 3974 ft | 196 kts | 301° |
| 2026-05-07 11:00 | 25.13001 | 55.58435 | 3747 ft | 192 kts | 301° |
| 2026-05-07 11:00 | 25.13704 | 55.57182 | 3516 ft | 190 kts | 301° |
| 2026-05-07 11:00 | 25.14394 | 55.55946 | 3284 ft | 188 kts | 300° |
| 2026-05-07 11:00 | 25.15072 | 55.54731 | 3055 ft | 184 kts | 300° |
| 2026-05-07 11:01 | 25.15726 | 55.53563 | 2838 ft | 172 kts | 300° |
| 2026-05-07 11:01 | 25.16343 | 55.52456 | 2629 ft | 167 kts | 299° |
| 2026-05-07 11:01 | 25.16946 | 55.51375 | 2422 ft | 165 kts | 299° |
| 2026-05-07 11:01 | 25.17542 | 55.50308 | 2214 ft | 163 kts | 299° |
| 2026-05-07 11:02 | 25.18138 | 55.49240 | 2008 ft | 159 kts | 299° |
| 2026-05-07 11:02 | 25.18697 | 55.48241 | 1809 ft | 149 kts | 299° |
| 2026-05-07 11:02 | 25.19228 | 55.47290 | 1625 ft | 142 kts | 299° |
| 2026-05-07 11:02 | 25.19732 | 55.46387 | 1449 ft | 137 kts | 299° |
| 2026-05-07 11:03 | 25.20236 | 55.45483 | 1272 ft | 136 kts | 299° |
| 2026-05-07 11:03 | 25.20725 | 55.44608 | 1098 ft | 135 kts | 299° |
| 2026-05-07 11:03 | 25.21231 | 55.43730 | 905 ft | 137 kts | 300° |
| 2026-05-07 11:03 | 25.21727 | 55.42847 | 687 ft | 133 kts | 299° |
| 2026-05-07 11:04 | 25.22211 | 55.41970 | 481 ft | 132 kts | 298° |
| 2026-05-07 11:04 | 25.22695 | 55.41103 | 442 ft | 137 kts | 300° |
| 2026-05-07 11:04 | 25.23202 | 55.40217 | 230 ft | 134 kts | 299° |
| 2026-05-07 11:04 | 25.23679 | 55.39328 | 97 ft | 134 kts | 297° |
| 2026-05-07 11:05 | 25.24106 | 55.38525 | 62 ft | 102 kts | 306° |
| 2026-05-07 11:05 | 25.24411 | 55.38007 | 59 ft | 64 kts | 302° |
| 2026-05-07 11:05 | 25.24635 | 55.37637 | 55 ft | 52 kts | 320° |
| 2026-05-07 11:05 | 25.24811 | 55.37534 | 55 ft | 22 kts | 331° |
| 2026-05-07 11:06 | 25.24922 | 55.37432 | 54 ft | 20 kts | 313° |
| 2026-05-07 11:06 | 25.25009 | 55.37293 | 52 ft | 23 kts | 299° |
| 2026-05-07 11:06 | 25.25109 | 55.37190 | 52 ft | 18 kts | 18° |
| 2026-05-07 11:06 | 25.25226 | 55.37262 | 52 ft | 21 kts | 32° |
| 2026-05-07 11:07 | 25.25355 | 55.37344 | 52 ft | 15 kts | 31° |
| 2026-05-07 11:07 | 25.25404 | 55.37314 | 52 ft | 13 kts | 302° |
| 2026-05-07 11:07 | 25.25472 | 55.37188 | 52 ft | 19 kts | 302° |
| 2026-05-07 11:07 | 25.25543 | 55.37062 | 51 ft | 19 kts | 302° |
| 2026-05-07 11:08 | 25.25613 | 55.36942 | 50 ft | 18 kts | 303° |
| 2026-05-07 11:08 | 25.25701 | 55.36854 | 49 ft | 16 kts | 4° |
| 2026-05-07 11:08 | 25.25747 | 55.36876 | 49 ft | 9 kts | 27° |
| 2026-05-07 11:08 | 25.25800 | 55.36910 | 49 ft | 2 kts | 40° |
| 2026-05-07 11:09 | 25.25812 | 55.36919 | 49 ft | 0 kts | 32° |